sensor_id;sensor_type;location;lat;lon;timestamp;pressure;altitude;pressure_sealevel;temperature;humidity
25080;BME280;13071;48.868;9.996;2023-01-31T00:00:48;97294.75;;;1.59;100.00
25080;BME280;13071;48.868;9.996;2023-01-31T00:03:15;97282.50;;;1.63;100.00
25080;BME280;13071;48.868;9.996;2023-01-31T00:05:41;97285.09;;;1.48;100.00
25080;BME280;13071;48.868;9.996;2023-01-31T00:08:08;97283.63;;;1.67;100.00
25080;BME280;13071;48.868;9.996;2023-01-31T00:10:34;97280.28;;;1.50;100.00
25080;BME280;13071;48.868;9.996;2023-01-31T00:13:02;97277.16;;;1.63;100.00
25080;BME280;13071;48.868;9.996;2023-01-31T00:15:29;97274.50;;;1.58;100.00
25080;BME280;13071;48.868;9.996;2023-01-31T00:17:56;97268.56;;;1.51;100.00
25080;BME280;13071;48.868;9.996;2023-01-31T00:20:22;97276.31;;;1.52;100.00
25080;BME280;13071;48.868;9.996;2023-01-31T00:22:49;97279.22;;;1.51;100.00
25080;BME280;13071;48.868;9.996;2023-01-31T00:25:16;97281.47;;;1.27;100.00
25080;BME280;13071;48.868;9.996;2023-01-31T00:27:42;97277.13;;;1.21;100.00
25080;BME280;13071;48.868;9.996;2023-01-31T00:30:11;97270.78;;;1.27;100.00
25080;BME280;13071;48.868;9.996;2023-01-31T00:32:37;97276.88;;;1.22;100.00
25080;BME280;13071;48.868;9.996;2023-01-31T00:35:05;97280.31;;;1.18;100.00
25080;BME280;13071;48.868;9.996;2023-01-31T00:37:31;97284.66;;;1.29;100.00
25080;BME280;13071;48.868;9.996;2023-01-31T00:39:58;97283.88;;;1.34;100.00
25080;BME280;13071;48.868;9.996;2023-01-31T00:42:24;97275.44;;;1.42;100.00
25080;BME280;13071;48.868;9.996;2023-01-31T00:44:51;97281.31;;;1.44;100.00
25080;BME280;13071;48.868;9.996;2023-01-31T00:47:19;97279.50;;;1.54;100.00
25080;BME280;13071;48.868;9.996;2023-01-31T00:49:45;97281.91;;;1.51;100.00
25080;BME280;13071;48.868;9.996;2023-01-31T00:52:12;97290.97;;;1.50;100.00
25080;BME280;13071;48.868;9.996;2023-01-31T00:54:38;97282.25;;;1.27;100.00
25080;BME280;13071;48.868;9.996;2023-01-31T00:57:05;97282.84;;;1.35;100.00
25080;BME280;13071;48.868;9.996;2023-01-31T00:59:31;97286.06;;;1.37;100.00
25080;BME280;13071;48.868;9.996;2023-01-31T01:01:58;97284.53;;;1.46;100.00
25080;BME280;13071;48.868;9.996;2023-01-31T01:04:26;97287.84;;;1.63;100.00
25080;BME280;13071;48.868;9.996;2023-01-31T01:06:52;97279.22;;;1.51;100.00
25080;BME280;13071;48.868;9.996;2023-01-31T01:09:19;97278.06;;;1.79;100.00
25080;BME280;13071;48.868;9.996;2023-01-31T01:11:47;97280.03;;;1.51;100.00
25080;BME280;13071;48.868;9.996;2023-01-31T01:14:14;97272.81;;;1.47;100.00
25080;BME280;13071;48.868;9.996;2023-01-31T01:16:41;97281.88;;;1.46;100.00
25080;BME280;13071;48.868;9.996;2023-01-31T01:19:13;97280.06;;;1.56;100.00
25080;BME280;13071;48.868;9.996;2023-01-31T01:21:42;97284.84;;;1.54;100.00
25080;BME280;13071;48.868;9.996;2023-01-31T01:24:13;97285.69;;;1.60;100.00
25080;BME280;13071;48.868;9.996;2023-01-31T01:26:41;97285.34;;;1.46;100.00
25080;BME280;13071;48.868;9.996;2023-01-31T01:29:08;97282.50;;;1.58;100.00
25080;BME280;13071;48.868;9.996;2023-01-31T01:31:36;97284.66;;;1.61;100.00
25080;BME280;13071;48.868;9.996;2023-01-31T01:34:05;97287.00;;;1.52;100.00
25080;BME280;13071;48.868;9.996;2023-01-31T01:36:33;97284.59;;;1.56;100.00
25080;BME280;13071;48.868;9.996;2023-01-31T01:39:02;97276.53;;;1.46;100.00
25080;BME280;13071;48.868;9.996;2023-01-31T01:41:30;97279.19;;;1.46;100.00
25080;BME280;13071;48.868;9.996;2023-01-31T01:43:58;97289.59;;;1.42;100.00
25080;BME280;13071;48.868;9.996;2023-01-31T01:46:28;97284.00;;;1.49;100.00
25080;BME280;13071;48.868;9.996;2023-01-31T01:48:58;97293.13;;;1.53;100.00
25080;BME280;13071;48.868;9.996;2023-01-31T01:51:26;97300.34;;;1.52;100.00
25080;BME280;13071;48.868;9.996;2023-01-31T01:53:59;97299.00;;;1.55;100.00
25080;BME280;13071;48.868;9.996;2023-01-31T01:56:31;97295.53;;;1.54;100.00
25080;BME280;13071;48.868;9.996;2023-01-31T01:59:04;97304.53;;;1.48;100.00
25080;BME280;13071;48.868;9.996;2023-01-31T02:01:53;97298.63;;;1.41;100.00
25080;BME280;13071;48.868;9.996;2023-01-31T02:04:23;97301.59;;;1.45;100.00
25080;BME280;13071;48.868;9.996;2023-01-31T02:06:51;97306.69;;;1.46;100.00
25080;BME280;13071;48.868;9.996;2023-01-31T02:09:20;97308.50;;;1.41;100.00
25080;BME280;13071;48.868;9.996;2023-01-31T02:11:49;97321.91;;;1.51;100.00
25080;BME280;13071;48.868;9.996;2023-01-31T02:14:16;97318.69;;;1.49;100.00
25080;BME280;13071;48.868;9.996;2023-01-31T02:16:44;97322.88;;;1.40;100.00
25080;BME280;13071;48.868;9.996;2023-01-31T02:19:19;97319.63;;;1.33;100.00
25080;BME280;13071;48.868;9.996;2023-01-31T02:22:08;97318.16;;;1.47;100.00
25080;BME280;13071;48.868;9.996;2023-01-31T02:25:22;97319.00;;;1.52;100.00
25080;BME280;13071;48.868;9.996;2023-01-31T02:28:28;97311.69;;;1.38;100.00
25080;BME280;13071;48.868;9.996;2023-01-31T02:31:39;97319.81;;;1.53;100.00
25080;BME280;13071;48.868;9.996;2023-01-31T02:34:19;97316.81;;;1.49;99.90
25080;BME280;13071;48.868;9.996;2023-01-31T02:36:59;97319.22;;;1.46;100.00
25080;BME280;13071;48.868;9.996;2023-01-31T02:39:37;97308.34;;;1.52;100.00
25080;BME280;13071;48.868;9.996;2023-01-31T02:42:12;97308.69;;;1.34;99.98
25080;BME280;13071;48.868;9.996;2023-01-31T02:44:48;97299.66;;;1.35;100.00
25080;BME280;13071;48.868;9.996;2023-01-31T02:47:30;97311.41;;;1.39;99.98
25080;BME280;13071;48.868;9.996;2023-01-31T02:50:03;97312.97;;;1.35;100.00
25080;BME280;13071;48.868;9.996;2023-01-31T02:52:40;97315.88;;;1.34;100.00
25080;BME280;13071;48.868;9.996;2023-01-31T02:55:13;97304.16;;;1.35;100.00
25080;BME280;13071;48.868;9.996;2023-01-31T02:58:02;97309.09;;;1.48;99.28
25080;BME280;13071;48.868;9.996;2023-01-31T03:00:32;97305.53;;;1.37;99.20
25080;BME280;13071;48.868;9.996;2023-01-31T03:02:59;97309.22;;;1.31;99.71
25080;BME280;13071;48.868;9.996;2023-01-31T03:05:27;97309.25;;;1.36;99.36
25080;BME280;13071;48.868;9.996;2023-01-31T03:07:56;97317.81;;;1.38;99.22
25080;BME280;13071;48.868;9.996;2023-01-31T03:10:39;97319.59;;;1.27;99.62
25080;BME280;13071;48.868;9.996;2023-01-31T03:13:24;97329.47;;;1.27;100.00
25080;BME280;13071;48.868;9.996;2023-01-31T03:15:59;97336.94;;;1.30;100.00
25080;BME280;13071;48.868;9.996;2023-01-31T03:18:49;97334.03;;;1.32;100.00
25080;BME280;13071;48.868;9.996;2023-01-31T03:21:23;97335.16;;;1.41;100.00
25080;BME280;13071;48.868;9.996;2023-01-31T03:23:53;97340.41;;;1.30;100.00
25080;BME280;13071;48.868;9.996;2023-01-31T03:26:22;97336.78;;;1.42;100.00
25080;BME280;13071;48.868;9.996;2023-01-31T03:28:51;97336.41;;;1.28;100.00
25080;BME280;13071;48.868;9.996;2023-01-31T03:31:24;97341.22;;;1.31;100.00
25080;BME280;13071;48.868;9.996;2023-01-31T03:33:53;97341.50;;;1.35;100.00
25080;BME280;13071;48.868;9.996;2023-01-31T03:36:29;97349.28;;;1.36;100.00
25080;BME280;13071;48.868;9.996;2023-01-31T03:39:04;97358.03;;;1.32;100.00
25080;BME280;13071;48.868;9.996;2023-01-31T03:41:42;97364.97;;;1.33;100.00
25080;BME280;13071;48.868;9.996;2023-01-31T03:44:13;97362.09;;;1.39;100.00
25080;BME280;13071;48.868;9.996;2023-01-31T03:46:48;97364.50;;;1.41;100.00
25080;BME280;13071;48.868;9.996;2023-01-31T03:49:17;97374.84;;;1.32;100.00
25080;BME280;13071;48.868;9.996;2023-01-31T03:51:50;97368.69;;;1.32;100.00
25080;BME280;13071;48.868;9.996;2023-01-31T03:54:21;97361.94;;;1.51;100.00
25080;BME280;13071;48.868;9.996;2023-01-31T03:56:54;97358.66;;;1.44;99.91
25080;BME280;13071;48.868;9.996;2023-01-31T03:59:25;97357.28;;;1.36;100.00
25080;BME280;13071;48.868;9.996;2023-01-31T04:01:55;97365.28;;;1.36;100.00
25080;BME280;13071;48.868;9.996;2023-01-31T04:04:24;97357.22;;;1.31;100.00
25080;BME280;13071;48.868;9.996;2023-01-31T04:06:55;97375.47;;;1.44;100.00
25080;BME280;13071;48.868;9.996;2023-01-31T04:09:21;97381.53;;;1.35;100.00
25080;BME280;13071;48.868;9.996;2023-01-31T04:11:49;97373.91;;;1.48;100.00
25080;BME280;13071;48.868;9.996;2023-01-31T04:14:16;97384.94;;;1.57;99.36
25080;BME280;13071;48.868;9.996;2023-01-31T04:16:42;97381.16;;;1.53;98.86
25080;BME280;13071;48.868;9.996;2023-01-31T04:19:09;97384.16;;;1.61;98.78
25080;BME280;13071;48.868;9.996;2023-01-31T04:21:36;97390.59;;;1.65;98.32
25080;BME280;13071;48.868;9.996;2023-01-31T04:24:04;97388.56;;;1.46;98.77
25080;BME280;13071;48.868;9.996;2023-01-31T04:26:31;97393.34;;;1.44;99.62
25080;BME280;13071;48.868;9.996;2023-01-31T04:28:57;97386.75;;;1.51;99.82
25080;BME280;13071;48.868;9.996;2023-01-31T04:31:24;97394.31;;;1.33;99.83
25080;BME280;13071;48.868;9.996;2023-01-31T04:33:51;97388.47;;;1.36;100.00
25080;BME280;13071;48.868;9.996;2023-01-31T04:36:17;97396.97;;;1.33;100.00
25080;BME280;13071;48.868;9.996;2023-01-31T04:38:44;97392.00;;;1.41;100.00
25080;BME280;13071;48.868;9.996;2023-01-31T04:41:12;97390.19;;;1.47;99.89
25080;BME280;13071;48.868;9.996;2023-01-31T04:43:38;97386.75;;;1.51;99.65
25080;BME280;13071;48.868;9.996;2023-01-31T04:46:05;97388.81;;;1.44;99.28
25080;BME280;13071;48.868;9.996;2023-01-31T04:48:32;97395.72;;;1.40;99.28
25080;BME280;13071;48.868;9.996;2023-01-31T04:50:58;97401.81;;;1.36;99.78
25080;BME280;13071;48.868;9.996;2023-01-31T04:53:25;97407.22;;;1.46;99.32
25080;BME280;13071;48.868;9.996;2023-01-31T04:55:52;97402.38;;;1.38;99.89
25080;BME280;13071;48.868;9.996;2023-01-31T04:58:20;97407.19;;;1.41;100.00
25080;BME280;13071;48.868;9.996;2023-01-31T05:00:47;97404.47;;;1.36;100.00
25080;BME280;13071;48.868;9.996;2023-01-31T05:03:13;97410.97;;;1.45;99.07
25080;BME280;13071;48.868;9.996;2023-01-31T05:05:40;97409.56;;;1.37;99.83
25080;BME280;13071;48.868;9.996;2023-01-31T05:08:06;97399.63;;;1.59;99.67
25080;BME280;13071;48.868;9.996;2023-01-31T05:10:33;97394.00;;;1.56;99.38
25080;BME280;13071;48.868;9.996;2023-01-31T05:13:00;97387.25;;;1.48;99.12
25080;BME280;13071;48.868;9.996;2023-01-31T05:15:28;97388.66;;;1.56;98.97
25080;BME280;13071;48.868;9.996;2023-01-31T05:17:54;97387.88;;;1.60;98.26
25080;BME280;13071;48.868;9.996;2023-01-31T05:20:27;97377.13;;;1.50;98.43
25080;BME280;13071;48.868;9.996;2023-01-31T05:22:53;97386.91;;;1.40;98.88
25080;BME280;13071;48.868;9.996;2023-01-31T05:25:20;97382.31;;;1.35;99.89
25080;BME280;13071;48.868;9.996;2023-01-31T05:27:47;97388.28;;;1.42;99.52
25080;BME280;13071;48.868;9.996;2023-01-31T05:30:13;97382.88;;;1.37;99.70
25080;BME280;13071;48.868;9.996;2023-01-31T05:32:41;97393.25;;;1.34;99.98
25080;BME280;13071;48.868;9.996;2023-01-31T05:35:10;97383.31;;;1.29;100.00
25080;BME280;13071;48.868;9.996;2023-01-31T05:37:37;97388.50;;;1.41;100.00
25080;BME280;13071;48.868;9.996;2023-01-31T05:40:08;97393.56;;;1.37;100.00
25080;BME280;13071;48.868;9.996;2023-01-31T05:42:34;97400.00;;;1.41;100.00
25080;BME280;13071;48.868;9.996;2023-01-31T05:45:01;97389.28;;;1.36;100.00
25080;BME280;13071;48.868;9.996;2023-01-31T05:47:28;97389.28;;;1.36;100.00
25080;BME280;13071;48.868;9.996;2023-01-31T05:49:56;97389.91;;;1.48;99.91
25080;BME280;13071;48.868;9.996;2023-01-31T05:52:22;97384.47;;;1.33;99.34
25080;BME280;13071;48.868;9.996;2023-01-31T05:54:49;97392.50;;;1.38;99.65
25080;BME280;13071;48.868;9.996;2023-01-31T05:57:15;97403.41;;;1.37;99.61
25080;BME280;13071;48.868;9.996;2023-01-31T05:59:42;97409.38;;;1.49;98.24
25080;BME280;13071;48.868;9.996;2023-01-31T06:02:09;97410.09;;;1.39;98.07
25080;BME280;13071;48.868;9.996;2023-01-31T06:04:36;97415.47;;;1.44;98.47
25080;BME280;13071;48.868;9.996;2023-01-31T06:07:04;97409.38;;;1.49;98.19
25080;BME280;13071;48.868;9.996;2023-01-31T06:09:31;97405.56;;;1.40;98.24
25080;BME280;13071;48.868;9.996;2023-01-31T06:11:57;97410.47;;;1.48;98.52
25080;BME280;13071;48.868;9.996;2023-01-31T06:14:24;97400.81;;;1.42;97.63
25080;BME280;13071;48.868;9.996;2023-01-31T06:16:51;97408.81;;;1.42;97.81
25080;BME280;13071;48.868;9.996;2023-01-31T06:19:17;97408.25;;;1.40;97.53
25080;BME280;13071;48.868;9.996;2023-01-31T06:21:45;97402.81;;;1.29;97.86
25080;BME280;13071;48.868;9.996;2023-01-31T06:24:13;97403.41;;;1.37;97.83
25080;BME280;13071;48.868;9.996;2023-01-31T06:26:40;97409.28;;;1.39;97.68
25080;BME280;13071;48.868;9.996;2023-01-31T06:29:07;97404.94;;;1.27;98.10
25080;BME280;13071;48.868;9.996;2023-01-31T06:31:34;97404.59;;;1.24;98.08
25080;BME280;13071;48.868;9.996;2023-01-31T06:34:00;97409.47;;;1.27;98.06
25080;BME280;13071;48.868;9.996;2023-01-31T06:36:27;97412.41;;;1.30;98.14
25080;BME280;13071;48.868;9.996;2023-01-31T06:38:56;97415.91;;;1.31;98.53
25080;BME280;13071;48.868;9.996;2023-01-31T06:41:24;97412.66;;;1.29;98.28
25080;BME280;13071;48.868;9.996;2023-01-31T06:43:51;97413.84;;;1.38;97.75
25080;BME280;13071;48.868;9.996;2023-01-31T06:46:17;97406.78;;;1.27;98.19
25080;BME280;13071;48.868;9.996;2023-01-31T06:48:44;97412.94;;;1.27;98.29
25080;BME280;13071;48.868;9.996;2023-01-31T06:51:11;97401.69;;;1.25;98.12
25080;BME280;13071;48.868;9.996;2023-01-31T06:53:37;97404.25;;;1.15;97.90
25080;BME280;13071;48.868;9.996;2023-01-31T06:56:05;97411.28;;;1.00;98.53
25080;BME280;13071;48.868;9.996;2023-01-31T06:58:33;97412.84;;;0.96;99.10
25080;BME280;13071;48.868;9.996;2023-01-31T07:01:03;97422.91;;;0.89;98.37
25080;BME280;13071;48.868;9.996;2023-01-31T07:03:30;97419.84;;;0.80;97.83
25080;BME280;13071;48.868;9.996;2023-01-31T07:05:56;97423.75;;;0.72;98.75
25080;BME280;13071;48.868;9.996;2023-01-31T07:08:23;97422.19;;;0.55;98.79
25080;BME280;13071;48.868;9.996;2023-01-31T07:10:50;97428.34;;;0.77;98.47
25080;BME280;13071;48.868;9.996;2023-01-31T07:13:16;97427.53;;;0.76;98.83
25080;BME280;13071;48.868;9.996;2023-01-31T07:15:45;97431.94;;;0.66;99.00
25080;BME280;13071;48.868;9.996;2023-01-31T07:18:12;97417.63;;;0.72;99.60
25080;BME280;13071;48.868;9.996;2023-01-31T07:20:38;97431.63;;;0.84;98.91
25080;BME280;13071;48.868;9.996;2023-01-31T07:23:06;97421.06;;;0.94;98.69
25080;BME280;13071;48.868;9.996;2023-01-31T07:25:33;97419.84;;;0.80;98.21
25080;BME280;13071;48.868;9.996;2023-01-31T07:27:59;97417.94;;;0.97;98.57
25080;BME280;13071;48.868;9.996;2023-01-31T07:30:26;97426.03;;;0.85;99.19
25080;BME280;13071;48.868;9.996;2023-01-31T07:32:54;97425.88;;;0.92;98.41
25080;BME280;13071;48.868;9.996;2023-01-31T07:35:21;97417.69;;;0.99;98.57
25080;BME280;13071;48.868;9.996;2023-01-31T07:37:50;97411.78;;;0.97;99.10
25080;BME280;13071;48.868;9.996;2023-01-31T07:40:17;97408.56;;;0.95;99.02
25080;BME280;13071;48.868;9.996;2023-01-31T07:42:43;97411.41;;;1.10;98.03
25080;BME280;13071;48.868;9.996;2023-01-31T07:45:11;97411.59;;;1.03;97.93
25080;BME280;13071;48.868;9.996;2023-01-31T07:47:39;97411.72;;;0.92;98.24
25080;BME280;13071;48.868;9.996;2023-01-31T07:50:09;97408.13;;;1.03;98.16
25080;BME280;13071;48.868;9.996;2023-01-31T07:52:36;97410.47;;;1.21;96.39
25080;BME280;13071;48.868;9.996;2023-01-31T07:55:03;97412.84;;;0.96;96.97
25080;BME280;13071;48.868;9.996;2023-01-31T07:57:30;97415.38;;;0.85;97.32
25080;BME280;13071;48.868;9.996;2023-01-31T07:59:57;97410.63;;;0.88;97.65
25080;BME280;13071;48.868;9.996;2023-01-31T08:02:23;97411.91;;;0.85;97.81
25080;BME280;13071;48.868;9.996;2023-01-31T08:05:20;97402.97;;;0.96;98.25
25080;BME280;13071;48.868;9.996;2023-01-31T08:07:47;97407.50;;;0.96;98.05
25080;BME280;13071;48.868;9.996;2023-01-31T08:10:33;97409.88;;;0.92;97.56
25080;BME280;13071;48.868;9.996;2023-01-31T08:13:00;97421.28;;;0.88;98.08
25080;BME280;13071;48.868;9.996;2023-01-31T08:15:27;97423.88;;;0.82;98.19
25080;BME280;13071;48.868;9.996;2023-01-31T08:17:53;97418.78;;;1.03;97.44
25080;BME280;13071;48.868;9.996;2023-01-31T08:20:21;97419.59;;;1.03;97.50
25080;BME280;13071;48.868;9.996;2023-01-31T08:22:47;97425.59;;;1.15;97.53
25080;BME280;13071;48.868;9.996;2023-01-31T08:25:14;97420.19;;;1.32;96.64
25080;BME280;13071;48.868;9.996;2023-01-31T08:27:41;97421.13;;;1.48;95.67
25080;BME280;13071;48.868;9.996;2023-01-31T08:30:09;97420.88;;;1.49;95.54
25080;BME280;13071;48.868;9.996;2023-01-31T08:32:36;97419.47;;;1.42;94.33
25080;BME280;13071;48.868;9.996;2023-01-31T08:35:02;97420.28;;;1.42;95.26
25080;BME280;13071;48.868;9.996;2023-01-31T08:37:32;97435.34;;;1.58;94.41
25080;BME280;13071;48.868;9.996;2023-01-31T08:39:59;97439.34;;;1.56;93.72
25080;BME280;13071;48.868;9.996;2023-01-31T08:42:25;97447.44;;;1.66;93.88
25080;BME280;13071;48.868;9.996;2023-01-31T08:44:52;97441.53;;;1.91;93.29
25080;BME280;13071;48.868;9.996;2023-01-31T08:47:19;97437.97;;;2.12;93.06
25080;BME280;13071;48.868;9.996;2023-01-31T08:49:45;97441.16;;;2.14;92.53
25080;BME280;13071;48.868;9.996;2023-01-31T08:52:12;97440.00;;;2.37;91.49
25080;BME280;13071;48.868;9.996;2023-01-31T08:54:40;97431.69;;;2.33;90.76
25080;BME280;13071;48.868;9.996;2023-01-31T08:57:06;97430.34;;;2.31;91.19
25080;BME280;13071;48.868;9.996;2023-01-31T08:59:33;97436.19;;;2.28;90.36
25080;BME280;13071;48.868;9.996;2023-01-31T09:02:01;97435.09;;;2.24;90.81
25080;BME280;13071;48.868;9.996;2023-01-31T09:04:27;97436.19;;;2.28;91.01
25080;BME280;13071;48.868;9.996;2023-01-31T09:06:54;97438.88;;;2.33;90.86
25080;BME280;13071;48.868;9.996;2023-01-31T09:09:20;97445.34;;;2.37;91.38
25080;BME280;13071;48.868;9.996;2023-01-31T09:11:48;97438.91;;;2.38;91.46
25080;BME280;13071;48.868;9.996;2023-01-31T09:14:15;97445.59;;;2.35;91.54
25080;BME280;13071;48.868;9.996;2023-01-31T09:16:41;97444.56;;;2.41;91.20
25080;BME280;13071;48.868;9.996;2023-01-31T09:19:09;97455.31;;;2.46;90.69
25080;BME280;13071;48.868;9.996;2023-01-31T09:21:36;97450.72;;;2.47;90.05
25080;BME280;13071;48.868;9.996;2023-01-31T09:24:03;97441.44;;;2.54;90.24
25080;BME280;13071;48.868;9.996;2023-01-31T09:26:30;97440.97;;;2.68;90.32
25080;BME280;13071;48.868;9.996;2023-01-31T09:28:58;97435.13;;;2.71;89.53
25080;BME280;13071;48.868;9.996;2023-01-31T09:31:25;97431.88;;;2.69;90.26
25080;BME280;13071;48.868;9.996;2023-01-31T09:33:52;97420.22;;;2.85;89.86
25080;BME280;13071;48.868;9.996;2023-01-31T09:36:21;97419.69;;;2.88;89.74
25080;BME280;13071;48.868;9.996;2023-01-31T09:38:52;97425.06;;;2.93;89.29
25080;BME280;13071;48.868;9.996;2023-01-31T09:41:25;97429.34;;;2.99;88.62
25080;BME280;13071;48.868;9.996;2023-01-31T09:43:55;97433.59;;;2.90;88.53
25080;BME280;13071;48.868;9.996;2023-01-31T09:46:26;97442.47;;;3.00;89.13
25080;BME280;13071;48.868;9.996;2023-01-31T09:48:58;97436.09;;;3.17;88.76
25080;BME280;13071;48.868;9.996;2023-01-31T09:51:30;97428.34;;;3.15;88.71
25080;BME280;13071;48.868;9.996;2023-01-31T09:53:57;97439.84;;;3.21;88.23
25080;BME280;13071;48.868;9.996;2023-01-31T09:56:31;97425.97;;;3.24;87.64
25080;BME280;13071;48.868;9.996;2023-01-31T09:59:06;97432.09;;;3.19;87.69
25080;BME280;13071;48.868;9.996;2023-01-31T10:01:44;97422.50;;;3.33;87.57
25080;BME280;13071;48.868;9.996;2023-01-31T10:04:33;97425.94;;;3.19;86.35
25080;BME280;13071;48.868;9.996;2023-01-31T10:07:10;97423.78;;;3.11;86.74
25080;BME280;13071;48.868;9.996;2023-01-31T10:09:42;97423.50;;;3.07;87.14
25080;BME280;13071;48.868;9.996;2023-01-31T10:12:13;97421.13;;;3.21;86.54
25080;BME280;13071;48.868;9.996;2023-01-31T10:14:45;97426.47;;;3.21;86.22
25080;BME280;13071;48.868;9.996;2023-01-31T10:17:18;97429.16;;;3.26;86.05
25080;BME280;13071;48.868;9.996;2023-01-31T10:19:48;97429.47;;;3.29;85.99
25080;BME280;13071;48.868;9.996;2023-01-31T10:22:22;97442.06;;;3.34;86.09
25080;BME280;13071;48.868;9.996;2023-01-31T10:24:55;97439.06;;;3.20;85.59
25080;BME280;13071;48.868;9.996;2023-01-31T10:27:36;97439.63;;;3.27;85.74
25080;BME280;13071;48.868;9.996;2023-01-31T10:30:13;97452.72;;;3.29;85.06
25080;BME280;13071;48.868;9.996;2023-01-31T10:32:44;97429.44;;;3.19;85.26
25080;BME280;13071;48.868;9.996;2023-01-31T10:35:19;97432.16;;;3.34;84.33
25080;BME280;13071;48.868;9.996;2023-01-31T10:37:49;97415.03;;;3.45;84.16
25080;BME280;13071;48.868;9.996;2023-01-31T10:40:20;97408.91;;;3.60;84.41
25080;BME280;13071;48.868;9.996;2023-01-31T10:42:50;97396.88;;;3.63;84.22
25080;BME280;13071;48.868;9.996;2023-01-31T10:45:20;97382.13;;;3.85;83.86
25080;BME280;13071;48.868;9.996;2023-01-31T10:47:50;97375.97;;;3.95;82.91
25080;BME280;13071;48.868;9.996;2023-01-31T10:50:21;97377.06;;;3.74;82.38
25080;BME280;13071;48.868;9.996;2023-01-31T10:53:04;97371.44;;;3.85;82.75
25080;BME280;13071;48.868;9.996;2023-01-31T10:55:54;97346.81;;;3.94;81.73
25080;BME280;13071;48.868;9.996;2023-01-31T10:58:24;97356.16;;;4.01;82.48
25080;BME280;13071;48.868;9.996;2023-01-31T11:00:51;97356.41;;;4.05;81.29
25080;BME280;13071;48.868;9.996;2023-01-31T11:03:20;97364.19;;;3.86;81.00
25080;BME280;13071;48.868;9.996;2023-01-31T11:05:49;97374.66;;;3.67;81.24
25080;BME280;13071;48.868;9.996;2023-01-31T11:08:24;97373.56;;;3.53;81.61
25080;BME280;13071;48.868;9.996;2023-01-31T11:10:54;97381.59;;;3.48;81.92
25080;BME280;13071;48.868;9.996;2023-01-31T11:13:21;97375.41;;;3.37;81.75
25080;BME280;13071;48.868;9.996;2023-01-31T11:15:49;97365.78;;;3.36;82.82
25080;BME280;13071;48.868;9.996;2023-01-31T11:18:26;97348.94;;;3.56;82.85
25080;BME280;13071;48.868;9.996;2023-01-31T11:20:54;97345.75;;;3.69;82.70
25080;BME280;13071;48.868;9.996;2023-01-31T11:23:22;97339.59;;;3.74;82.43
25080;BME280;13071;48.868;9.996;2023-01-31T11:25:52;97339.03;;;3.82;82.17
25080;BME280;13071;48.868;9.996;2023-01-31T11:28:22;97327.78;;;3.80;81.88
25080;BME280;13071;48.868;9.996;2023-01-31T11:30:51;97322.16;;;3.81;81.26
25080;BME280;13071;48.868;9.996;2023-01-31T11:33:39;97317.88;;;3.80;80.95
25080;BME280;13071;48.868;9.996;2023-01-31T11:36:09;97322.97;;;3.92;81.58
25080;BME280;13071;48.868;9.996;2023-01-31T11:38:36;97326.69;;;4.06;80.88
25080;BME280;13071;48.868;9.996;2023-01-31T11:41:26;97332.34;;;3.89;81.40
25080;BME280;13071;48.868;9.996;2023-01-31T11:44:07;97331.25;;;3.96;80.89
25080;BME280;13071;48.868;9.996;2023-01-31T11:46:41;97330.44;;;4.00;80.86
25080;BME280;13071;48.868;9.996;2023-01-31T11:49:19;97322.41;;;4.00;81.25
25080;BME280;13071;48.868;9.996;2023-01-31T11:51:47;97322.94;;;4.12;80.27
25080;BME280;13071;48.868;9.996;2023-01-31T11:54:18;97311.66;;;4.20;79.77
25080;BME280;13071;48.868;9.996;2023-01-31T11:56:46;97301.97;;;4.24;80.28
25080;BME280;13071;48.868;9.996;2023-01-31T11:59:17;97304.66;;;4.19;79.93
25080;BME280;13071;48.868;9.996;2023-01-31T12:01:47;97300.63;;;4.32;79.50
25080;BME280;13071;48.868;9.996;2023-01-31T12:04:19;97288.59;;;4.19;79.41
25080;BME280;13071;48.868;9.996;2023-01-31T12:06:56;97291.00;;;4.26;78.94
25080;BME280;13071;48.868;9.996;2023-01-31T12:09:24;97285.66;;;4.21;78.10
25080;BME280;13071;48.868;9.996;2023-01-31T12:11:52;97283.50;;;4.28;78.77
25080;BME280;13071;48.868;9.996;2023-01-31T12:14:20;97282.69;;;4.27;78.84
25080;BME280;13071;48.868;9.996;2023-01-31T12:16:47;97278.34;;;4.42;79.13
25080;BME280;13071;48.868;9.996;2023-01-31T12:19:25;97264.41;;;4.40;78.39
25080;BME280;13071;48.868;9.996;2023-01-31T12:22:02;97241.44;;;4.23;78.10
25080;BME280;13071;48.868;9.996;2023-01-31T12:24:40;97232.31;;;4.24;78.39
25080;BME280;13071;48.868;9.996;2023-01-31T12:27:18;97232.28;;;4.29;78.46
25080;BME280;13071;48.868;9.996;2023-01-31T12:30:09;97228.53;;;4.35;78.86
25080;BME280;13071;48.868;9.996;2023-01-31T12:32:55;97226.09;;;4.39;78.71
25080;BME280;13071;48.868;9.996;2023-01-31T12:35:43;97218.09;;;4.34;77.95
25080;BME280;13071;48.868;9.996;2023-01-31T12:38:26;97212.22;;;4.27;78.15
25080;BME280;13071;48.868;9.996;2023-01-31T12:41:04;97230.72;;;4.28;78.84
25080;BME280;13071;48.868;9.996;2023-01-31T12:43:47;97228.06;;;4.23;78.52
25080;BME280;13071;48.868;9.996;2023-01-31T12:46:24;97224.06;;;4.11;78.83
25080;BME280;13071;48.868;9.996;2023-01-31T12:49:09;97229.72;;;4.14;79.60
25080;BME280;13071;48.868;9.996;2023-01-31T12:51:46;97215.50;;;4.14;79.80
25080;BME280;13071;48.868;9.996;2023-01-31T12:54:28;97210.66;;;4.16;79.29
25080;BME280;13071;48.868;9.996;2023-01-31T12:57:07;97195.16;;;4.13;79.30
25080;BME280;13071;48.868;9.996;2023-01-31T12:59:46;97176.38;;;4.13;79.09
25080;BME280;13071;48.868;9.996;2023-01-31T13:02:30;97160.66;;;3.96;79.31
25080;BME280;13071;48.868;9.996;2023-01-31T13:05:02;97175.59;;;4.12;79.00
25080;BME280;13071;48.868;9.996;2023-01-31T13:07:39;97171.34;;;4.01;79.23
25080;BME280;13071;48.868;9.996;2023-01-31T13:10:27;97174.34;;;3.89;79.07
25080;BME280;13071;48.868;9.996;2023-01-31T13:12:56;97159.34;;;3.88;79.39
25080;BME280;13071;48.868;9.996;2023-01-31T13:15:28;97158.78;;;3.97;80.26
25080;BME280;13071;48.868;9.996;2023-01-31T13:17:59;97161.19;;;3.98;80.15
25080;BME280;13071;48.868;9.996;2023-01-31T13:20:30;97160.63;;;4.01;80.19
25080;BME280;13071;48.868;9.996;2023-01-31T13:23:03;97156.94;;;3.92;80.53
25080;BME280;13071;48.868;9.996;2023-01-31T13:25:36;97159.56;;;4.02;80.62